sensor_id;sensor_type;location;lat;lon;timestamp;pressure;altitude;pressure_sealevel;temperature
8227;BMP180;4154;48.810;9.012;2022-07-29T00:00:36;96993.00;;;20.60
8227;BMP180;4154;48.810;9.012;2022-07-29T00:03:02;96981.00;;;20.60
8227;BMP180;4154;48.810;9.012;2022-07-29T00:05:29;96981.00;;;20.50
8227;BMP180;4154;48.810;9.012;2022-07-29T00:07:55;96979.00;;;20.50
8227;BMP180;4154;48.810;9.012;2022-07-29T00:10:21;96972.00;;;20.50
8227;BMP180;4154;48.810;9.012;2022-07-29T00:12:47;96963.00;;;20.50
8227;BMP180;4154;48.810;9.012;2022-07-29T00:15:14;96964.00;;;20.50
8227;BMP180;4154;48.810;9.012;2022-07-29T00:17:40;96963.00;;;20.40
8227;BMP180;4154;48.810;9.012;2022-07-29T00:20:07;96960.00;;;20.40
8227;BMP180;4154;48.810;9.012;2022-07-29T00:22:33;96960.00;;;20.40
8227;BMP180;4154;48.810;9.012;2022-07-29T00:25:02;96961.00;;;20.30
8227;BMP180;4154;48.810;9.012;2022-07-29T00:27:28;96954.00;;;20.30
8227;BMP180;4154;48.810;9.012;2022-07-29T00:29:54;96964.00;;;20.30
8227;BMP180;4154;48.810;9.012;2022-07-29T00:32:20;96965.00;;;20.30
8227;BMP180;4154;48.810;9.012;2022-07-29T00:34:46;96968.00;;;20.30
8227;BMP180;4154;48.810;9.012;2022-07-29T00:37:31;96957.00;;;20.20
8227;BMP180;4154;48.810;9.012;2022-07-29T00:39:57;96948.00;;;20.20
8227;BMP180;4154;48.810;9.012;2022-07-29T00:42:23;96955.00;;;20.20
8227;BMP180;4154;48.810;9.012;2022-07-29T00:44:48;96947.00;;;20.20
8227;BMP180;4154;48.810;9.012;2022-07-29T00:47:15;96946.00;;;20.20
8227;BMP180;4154;48.810;9.012;2022-07-29T00:49:42;96941.00;;;20.10
8227;BMP180;4154;48.810;9.012;2022-07-29T00:52:09;96940.00;;;20.20
8227;BMP180;4154;48.810;9.012;2022-07-29T00:54:38;96934.00;;;20.10
8227;BMP180;4154;48.810;9.012;2022-07-29T00:57:07;96927.00;;;20.10
8227;BMP180;4154;48.810;9.012;2022-07-29T00:59:33;96930.00;;;20.10
8227;BMP180;4154;48.810;9.012;2022-07-29T01:02:00;96925.00;;;20.10
8227;BMP180;4154;48.810;9.012;2022-07-29T01:04:26;96926.00;;;20.00
8227;BMP180;4154;48.810;9.012;2022-07-29T01:06:54;96914.00;;;20.00
8227;BMP180;4154;48.810;9.012;2022-07-29T01:09:20;96921.00;;;20.00
8227;BMP180;4154;48.810;9.012;2022-07-29T01:11:47;96920.00;;;20.00
8227;BMP180;4154;48.810;9.012;2022-07-29T01:14:15;96919.00;;;20.00
8227;BMP180;4154;48.810;9.012;2022-07-29T01:17:02;96929.00;;;20.00
8227;BMP180;4154;48.810;9.012;2022-07-29T01:20:01;96922.00;;;19.90
8227;BMP180;4154;48.810;9.012;2022-07-29T01:28:21;96923.00;;;20.00
8227;BMP180;4154;48.810;9.012;2022-07-29T01:30:51;96923.00;;;19.90
8227;BMP180;4154;48.810;9.012;2022-07-29T01:33:22;96918.00;;;20.00
8227;BMP180;4154;48.810;9.012;2022-07-29T01:36:16;96912.00;;;20.00
8227;BMP180;4154;48.810;9.012;2022-07-29T01:38:47;96919.00;;;20.00
8227;BMP180;4154;48.810;9.012;2022-07-29T01:41:19;96908.00;;;20.00
8227;BMP180;4154;48.810;9.012;2022-07-29T01:43:57;96905.00;;;20.00
8227;BMP180;4154;48.810;9.012;2022-07-29T01:46:37;96904.00;;;20.00
8227;BMP180;4154;48.810;9.012;2022-07-29T01:49:15;96905.00;;;20.00
8227;BMP180;4154;48.810;9.012;2022-07-29T01:51:57;96903.00;;;20.10
8227;BMP180;4154;48.810;9.012;2022-07-29T01:54:44;96897.00;;;20.00
8227;BMP180;4154;48.810;9.012;2022-07-29T01:57:16;96900.00;;;20.10
8227;BMP180;4154;48.810;9.012;2022-07-29T01:59:46;96905.00;;;20.10
8227;BMP180;4154;48.810;9.012;2022-07-29T02:02:16;96901.00;;;20.10
8227;BMP180;4154;48.810;9.012;2022-07-29T02:04:46;96901.00;;;20.10
8227;BMP180;4154;48.810;9.012;2022-07-29T02:07:18;96896.00;;;20.10
8227;BMP180;4154;48.810;9.012;2022-07-29T02:09:47;96894.00;;;20.10
8227;BMP180;4154;48.810;9.012;2022-07-29T02:12:16;96884.00;;;20.10
8227;BMP180;4154;48.810;9.012;2022-07-29T02:14:49;96892.00;;;20.00
8227;BMP180;4154;48.810;9.012;2022-07-29T02:17:26;96898.00;;;20.00
8227;BMP180;4154;48.810;9.012;2022-07-29T02:19:56;96897.00;;;20.00
8227;BMP180;4154;48.810;9.012;2022-07-29T02:22:26;96893.00;;;20.00
8227;BMP180;4154;48.810;9.012;2022-07-29T02:24:54;96896.00;;;20.00
8227;BMP180;4154;48.810;9.012;2022-07-29T02:27:23;96889.00;;;20.00
8227;BMP180;4154;48.810;9.012;2022-07-29T02:29:52;96895.00;;;20.00
8227;BMP180;4154;48.810;9.012;2022-07-29T02:32:21;96893.00;;;20.00
8227;BMP180;4154;48.810;9.012;2022-07-29T02:34:50;96894.00;;;20.00
8227;BMP180;4154;48.810;9.012;2022-07-29T02:37:17;96892.00;;;20.00
8227;BMP180;4154;48.810;9.012;2022-07-29T02:39:45;96890.00;;;20.00
8227;BMP180;4154;48.810;9.012;2022-07-29T02:42:16;96887.00;;;20.00
8227;BMP180;4154;48.810;9.012;2022-07-29T02:44:43;96892.00;;;20.00
8227;BMP180;4154;48.810;9.012;2022-07-29T02:47:19;96897.00;;;20.00
8227;BMP180;4154;48.810;9.012;2022-07-29T02:50:00;96894.00;;;19.90
8227;BMP180;4154;48.810;9.012;2022-07-29T02:55:20;96887.00;;;20.00
8227;BMP180;4154;48.810;9.012;2022-07-29T02:58:01;96885.00;;;20.00
8227;BMP180;4154;48.810;9.012;2022-07-29T03:00:30;96879.00;;;20.00
8227;BMP180;4154;48.810;9.012;2022-07-29T03:03:00;96878.00;;;20.00
8227;BMP180;4154;48.810;9.012;2022-07-29T03:05:30;96876.00;;;20.00
8227;BMP180;4154;48.810;9.012;2022-07-29T03:08:01;96890.00;;;20.00
8227;BMP180;4154;48.810;9.012;2022-07-29T03:10:28;96887.00;;;20.00
8227;BMP180;4154;48.810;9.012;2022-07-29T03:12:56;96885.00;;;19.90
8227;BMP180;4154;48.810;9.012;2022-07-29T03:15:24;96893.00;;;19.90
8227;BMP180;4154;48.810;9.012;2022-07-29T03:17:51;96894.00;;;19.90
8227;BMP180;4154;48.810;9.012;2022-07-29T03:20:18;96904.00;;;19.90
8227;BMP180;4154;48.810;9.012;2022-07-29T03:22:45;96900.00;;;19.80
8227;BMP180;4154;48.810;9.012;2022-07-29T03:25:16;96902.00;;;19.80
8227;BMP180;4154;48.810;9.012;2022-07-29T03:27:43;96907.00;;;19.80
8227;BMP180;4154;48.810;9.012;2022-07-29T03:30:11;96909.00;;;19.80
8227;BMP180;4154;48.810;9.012;2022-07-29T03:32:37;96898.00;;;19.70
8227;BMP180;4154;48.810;9.012;2022-07-29T03:35:04;96908.00;;;19.70
8227;BMP180;4154;48.810;9.012;2022-07-29T03:37:30;96904.00;;;19.70
8227;BMP180;4154;48.810;9.012;2022-07-29T03:39:57;96911.00;;;19.60
8227;BMP180;4154;48.810;9.012;2022-07-29T03:42:28;96912.00;;;19.60
8227;BMP180;4154;48.810;9.012;2022-07-29T03:44:57;96904.00;;;19.60
8227;BMP180;4154;48.810;9.012;2022-07-29T03:47:27;96912.00;;;19.60
8227;BMP180;4154;48.810;9.012;2022-07-29T03:50:02;96906.00;;;19.60
8227;BMP180;4154;48.810;9.012;2022-07-29T03:52:39;96906.00;;;19.50
8227;BMP180;4154;48.810;9.012;2022-07-29T03:55:06;96907.00;;;19.50
8227;BMP180;4154;48.810;9.012;2022-07-29T03:57:34;96902.00;;;19.50
8227;BMP180;4154;48.810;9.012;2022-07-29T04:00:03;96896.00;;;19.50
8227;BMP180;4154;48.810;9.012;2022-07-29T04:02:32;96908.00;;;19.50
8227;BMP180;4154;48.810;9.012;2022-07-29T04:04:59;96907.00;;;19.40
8227;BMP180;4154;48.810;9.012;2022-07-29T04:07:25;96903.00;;;19.40
8227;BMP180;4154;48.810;9.012;2022-07-29T04:09:51;96901.00;;;19.40
8227;BMP180;4154;48.810;9.012;2022-07-29T04:15:58;96897.00;;;19.30
8227;BMP180;4154;48.810;9.012;2022-07-29T04:18:24;96905.00;;;19.30
8227;BMP180;4154;48.810;9.012;2022-07-29T04:20:50;96901.00;;;19.20
8227;BMP180;4154;48.810;9.012;2022-07-29T04:23:16;96905.00;;;19.20
8227;BMP180;4154;48.810;9.012;2022-07-29T04:25:43;96904.00;;;19.20
8227;BMP180;4154;48.810;9.012;2022-07-29T04:28:10;96902.00;;;19.20
8227;BMP180;4154;48.810;9.012;2022-07-29T04:30:37;96897.00;;;19.20
8227;BMP180;4154;48.810;9.012;2022-07-29T04:33:06;96901.00;;;19.20
8227;BMP180;4154;48.810;9.012;2022-07-29T04:35:37;96906.00;;;19.20
8227;BMP180;4154;48.810;9.012;2022-07-29T04:38:05;96911.00;;;19.20
8227;BMP180;4154;48.810;9.012;2022-07-29T04:40:31;96904.00;;;19.20
8227;BMP180;4154;48.810;9.012;2022-07-29T04:43:00;96906.00;;;19.20
8227;BMP180;4154;48.810;9.012;2022-07-29T04:45:27;96897.00;;;19.20
8227;BMP180;4154;48.810;9.012;2022-07-29T04:47:53;96903.00;;;19.20
8227;BMP180;4154;48.810;9.012;2022-07-29T04:50:18;96905.00;;;19.20
8227;BMP180;4154;48.810;9.012;2022-07-29T04:52:44;96899.00;;;19.30
8227;BMP180;4154;48.810;9.012;2022-07-29T04:55:10;96903.00;;;19.30
8227;BMP180;4154;48.810;9.012;2022-07-29T04:57:36;96901.00;;;19.30
8227;BMP180;4154;48.810;9.012;2022-07-29T05:00:04;96900.00;;;19.30
8227;BMP180;4154;48.810;9.012;2022-07-29T05:02:30;96893.00;;;19.40
8227;BMP180;4154;48.810;9.012;2022-07-29T05:04:56;96901.00;;;19.40
8227;BMP180;4154;48.810;9.012;2022-07-29T05:07:22;96911.00;;;19.40
8227;BMP180;4154;48.810;9.012;2022-07-29T05:09:48;96911.00;;;19.50
8227;BMP180;4154;48.810;9.012;2022-07-29T05:12:14;96908.00;;;19.50
8227;BMP180;4154;48.810;9.012;2022-07-29T05:14:40;96910.00;;;19.50
8227;BMP180;4154;48.810;9.012;2022-07-29T05:17:05;96910.00;;;19.60
8227;BMP180;4154;48.810;9.012;2022-07-29T05:19:31;96906.00;;;19.60
8227;BMP180;4154;48.810;9.012;2022-07-29T05:21:57;96906.00;;;19.60
8227;BMP180;4154;48.810;9.012;2022-07-29T05:24:23;96909.00;;;19.60
8227;BMP180;4154;48.810;9.012;2022-07-29T05:26:49;96914.00;;;19.70
8227;BMP180;4154;48.810;9.012;2022-07-29T05:29:14;96916.00;;;19.70
8227;BMP180;4154;48.810;9.012;2022-07-29T05:31:40;96910.00;;;19.80
8227;BMP180;4154;48.810;9.012;2022-07-29T05:34:06;96914.00;;;19.80
8227;BMP180;4154;48.810;9.012;2022-07-29T05:36:32;96916.00;;;19.80
8227;BMP180;4154;48.810;9.012;2022-07-29T05:38:58;96921.00;;;19.90
8227;BMP180;4154;48.810;9.012;2022-07-29T05:41:23;96912.00;;;19.90
8227;BMP180;4154;48.810;9.012;2022-07-29T05:43:49;96910.00;;;19.90
8227;BMP180;4154;48.810;9.012;2022-07-29T05:46:15;96916.00;;;20.00
8227;BMP180;4154;48.810;9.012;2022-07-29T05:48:41;96919.00;;;20.00
8227;BMP180;4154;48.810;9.012;2022-07-29T05:51:06;96911.00;;;20.10
8227;BMP180;4154;48.810;9.012;2022-07-29T05:53:33;96921.00;;;20.10
8227;BMP180;4154;48.810;9.012;2022-07-29T05:56:03;96927.00;;;20.10
8227;BMP180;4154;48.810;9.012;2022-07-29T05:58:30;96926.00;;;20.20
8227;BMP180;4154;48.810;9.012;2022-07-29T06:00:56;96932.00;;;20.20
8227;BMP180;4154;48.810;9.012;2022-07-29T06:03:26;96932.00;;;20.20
8227;BMP180;4154;48.810;9.012;2022-07-29T06:05:52;96930.00;;;20.30
8227;BMP180;4154;48.810;9.012;2022-07-29T06:08:18;96934.00;;;20.30
8227;BMP180;4154;48.810;9.012;2022-07-29T06:10:44;96938.00;;;20.40
8227;BMP180;4154;48.810;9.012;2022-07-29T06:13:12;96941.00;;;20.40
8227;BMP180;4154;48.810;9.012;2022-07-29T06:15:38;96949.00;;;20.40
8227;BMP180;4154;48.810;9.012;2022-07-29T06:18:04;96948.00;;;20.50
8227;BMP180;4154;48.810;9.012;2022-07-29T06:20:34;96953.00;;;20.50
8227;BMP180;4154;48.810;9.012;2022-07-29T06:23:01;96951.00;;;20.50
8227;BMP180;4154;48.810;9.012;2022-07-29T06:25:27;96948.00;;;20.60
8227;BMP180;4154;48.810;9.012;2022-07-29T06:28:00;96951.00;;;20.60
8227;BMP180;4154;48.810;9.012;2022-07-29T06:30:26;96951.00;;;20.60
8227;BMP180;4154;48.810;9.012;2022-07-29T06:32:54;96961.00;;;20.70
8227;BMP180;4154;48.810;9.012;2022-07-29T06:35:20;96955.00;;;20.70
8227;BMP180;4154;48.810;9.012;2022-07-29T06:37:47;96960.00;;;20.70
8227;BMP180;4154;48.810;9.012;2022-07-29T06:40:13;96956.00;;;20.70
8227;BMP180;4154;48.810;9.012;2022-07-29T06:42:57;96969.00;;;20.70
8227;BMP180;4154;48.810;9.012;2022-07-29T06:45:23;96965.00;;;20.70
8227;BMP180;4154;48.810;9.012;2022-07-29T06:47:50;96964.00;;;20.70
8227;BMP180;4154;48.810;9.012;2022-07-29T06:50:16;96969.00;;;20.80
8227;BMP180;4154;48.810;9.012;2022-07-29T06:52:42;96963.00;;;20.80
8227;BMP180;4154;48.810;9.012;2022-07-29T06:55:09;96964.00;;;20.90
8227;BMP180;4154;48.810;9.012;2022-07-29T06:57:35;96971.00;;;20.90
8227;BMP180;4154;48.810;9.012;2022-07-29T07:00:01;96965.00;;;21.00
8227;BMP180;4154;48.810;9.012;2022-07-29T07:02:30;96976.00;;;21.00
8227;BMP180;4154;48.810;9.012;2022-07-29T07:04:56;96979.00;;;21.10
8227;BMP180;4154;48.810;9.012;2022-07-29T07:07:21;96979.00;;;21.10
8227;BMP180;4154;48.810;9.012;2022-07-29T07:09:48;96977.00;;;21.10
8227;BMP180;4154;48.810;9.012;2022-07-29T07:12:13;96979.00;;;21.20
8227;BMP180;4154;48.810;9.012;2022-07-29T07:14:39;96983.00;;;21.20
8227;BMP180;4154;48.810;9.012;2022-07-29T07:17:06;96981.00;;;21.20
8227;BMP180;4154;48.810;9.012;2022-07-29T07:19:33;96975.00;;;21.30
8227;BMP180;4154;48.810;9.012;2022-07-29T07:21:59;96982.00;;;21.30
8227;BMP180;4154;48.810;9.012;2022-07-29T07:24:26;96984.00;;;21.40
8227;BMP180;4154;48.810;9.012;2022-07-29T07:26:51;96983.00;;;21.40
8227;BMP180;4154;48.810;9.012;2022-07-29T07:29:17;96987.00;;;21.40
8227;BMP180;4154;48.810;9.012;2022-07-29T07:31:43;96987.00;;;21.50
8227;BMP180;4154;48.810;9.012;2022-07-29T07:34:09;96989.00;;;21.50
8227;BMP180;4154;48.810;9.012;2022-07-29T07:36:35;96993.00;;;21.60
8227;BMP180;4154;48.810;9.012;2022-07-29T07:39:01;96997.00;;;21.70
8227;BMP180;4154;48.810;9.012;2022-07-29T07:41:28;96989.00;;;21.80
8227;BMP180;4154;48.810;9.012;2022-07-29T07:43:57;96993.00;;;21.80
8227;BMP180;4154;48.810;9.012;2022-07-29T07:46:22;97004.00;;;21.90
8227;BMP180;4154;48.810;9.012;2022-07-29T07:48:49;96985.00;;;22.00
8227;BMP180;4154;48.810;9.012;2022-07-29T07:51:14;96983.00;;;22.00
8227;BMP180;4154;48.810;9.012;2022-07-29T07:53:40;96979.00;;;22.00
8227;BMP180;4154;48.810;9.012;2022-07-29T07:56:07;96987.00;;;22.10
8227;BMP180;4154;48.810;9.012;2022-07-29T07:58:33;96996.00;;;22.10
8227;BMP180;4154;48.810;9.012;2022-07-29T08:01:00;96997.00;;;22.20
8227;BMP180;4154;48.810;9.012;2022-07-29T08:03:26;96991.00;;;22.20
8227;BMP180;4154;48.810;9.012;2022-07-29T08:05:53;97002.00;;;22.30
8227;BMP180;4154;48.810;9.012;2022-07-29T08:08:20;96991.00;;;22.30
8227;BMP180;4154;48.810;9.012;2022-07-29T08:10:46;96993.00;;;22.30
8227;BMP180;4154;48.810;9.012;2022-07-29T08:13:22;96992.00;;;22.30
8227;BMP180;4154;48.810;9.012;2022-07-29T08:15:48;96999.00;;;22.30
8227;BMP180;4154;48.810;9.012;2022-07-29T08:18:27;96996.00;;;22.50
8227;BMP180;4154;48.810;9.012;2022-07-29T08:20:54;96998.00;;;22.60
8227;BMP180;4154;48.810;9.012;2022-07-29T08:23:21;96988.00;;;22.60
8227;BMP180;4154;48.810;9.012;2022-07-29T08:25:49;96989.00;;;22.70
8227;BMP180;4154;48.810;9.012;2022-07-29T08:28:16;96988.00;;;22.70
8227;BMP180;4154;48.810;9.012;2022-07-29T08:30:42;96986.00;;;22.70
8227;BMP180;4154;48.810;9.012;2022-07-29T08:33:07;96986.00;;;22.70
8227;BMP180;4154;48.810;9.012;2022-07-29T08:35:33;96987.00;;;22.70
8227;BMP180;4154;48.810;9.012;2022-07-29T08:37:59;96987.00;;;22.70
8227;BMP180;4154;48.810;9.012;2022-07-29T08:40:25;96997.00;;;22.80
8227;BMP180;4154;48.810;9.012;2022-07-29T08:42:51;96987.00;;;22.90
8227;BMP180;4154;48.810;9.012;2022-07-29T08:45:17;96984.00;;;22.90
8227;BMP180;4154;48.810;9.012;2022-07-29T08:47:45;96988.00;;;23.00
8227;BMP180;4154;48.810;9.012;2022-07-29T08:50:11;96987.00;;;23.00
8227;BMP180;4154;48.810;9.012;2022-07-29T08:52:40;96988.00;;;23.10
8227;BMP180;4154;48.810;9.012;2022-07-29T08:55:09;96990.00;;;23.10
8227;BMP180;4154;48.810;9.012;2022-07-29T08:57:36;97002.00;;;23.30
8227;BMP180;4154;48.810;9.012;2022-07-29T09:00:07;96989.00;;;23.40
8227;BMP180;4154;48.810;9.012;2022-07-29T09:02:39;96984.00;;;23.40
8227;BMP180;4154;48.810;9.012;2022-07-29T09:05:07;96981.00;;;23.40
8227;BMP180;4154;48.810;9.012;2022-07-29T09:07:33;96992.00;;;23.40
8227;BMP180;4154;48.810;9.012;2022-07-29T09:10:00;96988.00;;;23.40
8227;BMP180;4154;48.810;9.012;2022-07-29T09:12:26;96993.00;;;23.40
8227;BMP180;4154;48.810;9.012;2022-07-29T09:14:52;96989.00;;;23.50
8227;BMP180;4154;48.810;9.012;2022-07-29T09:17:40;96985.00;;;23.50
8227;BMP180;4154;48.810;9.012;2022-07-29T09:20:13;96988.00;;;23.60
8227;BMP180;4154;48.810;9.012;2022-07-29T09:22:45;96992.00;;;23.60
8227;BMP180;4154;48.810;9.012;2022-07-29T09:25:39;97002.00;;;23.70
8227;BMP180;4154;48.810;9.012;2022-07-29T09:28:15;97002.00;;;23.70
8227;BMP180;4154;48.810;9.012;2022-07-29T09:30:54;97002.00;;;23.80
8227;BMP180;4154;48.810;9.012;2022-07-29T09:33:22;97003.00;;;23.90
8227;BMP180;4154;48.810;9.012;2022-07-29T09:36:08;96992.00;;;24.00
8227;BMP180;4154;48.810;9.012;2022-07-29T09:38:35;96986.00;;;24.10
8227;BMP180;4154;48.810;9.012;2022-07-29T09:41:05;96991.00;;;24.20
8227;BMP180;4154;48.810;9.012;2022-07-29T09:43:33;96990.00;;;24.20
8227;BMP180;4154;48.810;9.012;2022-07-29T09:46:14;96986.00;;;24.30
8227;BMP180;4154;48.810;9.012;2022-07-29T09:48:40;96985.00;;;24.40
8227;BMP180;4154;48.810;9.012;2022-07-29T09:51:20;96982.00;;;24.30
8227;BMP180;4154;48.810;9.012;2022-07-29T09:53:46;96986.00;;;24.30
8227;BMP180;4154;48.810;9.012;2022-07-29T09:56:12;96980.00;;;24.30
8227;BMP180;4154;48.810;9.012;2022-07-29T09:58:39;96967.00;;;24.20
8227;BMP180;4154;48.810;9.012;2022-07-29T10:01:05;96977.00;;;24.10
8227;BMP180;4154;48.810;9.012;2022-07-29T10:03:31;96974.00;;;24.00
8227;BMP180;4154;48.810;9.012;2022-07-29T10:06:11;96977.00;;;24.00
8227;BMP180;4154;48.810;9.012;2022-07-29T10:08:41;96993.00;;;23.90
8227;BMP180;4154;48.810;9.012;2022-07-29T10:11:11;96985.00;;;23.80
8227;BMP180;4154;48.810;9.012;2022-07-29T10:13:38;96984.00;;;23.80
8227;BMP180;4154;48.810;9.012;2022-07-29T10:16:05;96989.00;;;23.70
8227;BMP180;4154;48.810;9.012;2022-07-29T10:18:32;96991.00;;;23.70
8227;BMP180;4154;48.810;9.012;2022-07-29T10:20:58;96998.00;;;23.70
8227;BMP180;4154;48.810;9.012;2022-07-29T10:23:28;96989.00;;;23.60
8227;BMP180;4154;48.810;9.012;2022-07-29T10:25:55;96982.00;;;23.60
8227;BMP180;4154;48.810;9.012;2022-07-29T10:28:21;96980.00;;;23.60
8227;BMP180;4154;48.810;9.012;2022-07-29T10:30:51;96985.00;;;23.60
8227;BMP180;4154;48.810;9.012;2022-07-29T10:36:32;96996.00;;;23.50
8227;BMP180;4154;48.810;9.012;2022-07-29T10:42:21;96997.00;;;23.40
8227;BMP180;4154;48.810;9.012;2022-07-29T10:44:49;97002.00;;;23.40
8227;BMP180;4154;48.810;9.012;2022-07-29T10:47:24;97000.00;;;23.30
8227;BMP180;4154;48.810;9.012;2022-07-29T10:50:05;97020.00;;;23.20
8227;BMP180;4154;48.810;9.012;2022-07-29T10:55:38;97031.00;;;23.10
8227;BMP180;4154;48.810;9.012;2022-07-29T10:58:20;97018.00;;;23.00
8227;BMP180;4154;48.810;9.012;2022-07-29T11:00:57;97023.00;;;22.80
8227;BMP180;4154;48.810;9.012;2022-07-29T11:03:47;97010.00;;;22.50
8227;BMP180;4154;48.810;9.012;2022-07-29T11:06:14;97002.00;;;22.30
8227;BMP180;4154;48.810;9.012;2022-07-29T11:08:41;97009.00;;;22.10
8227;BMP180;4154;48.810;9.012;2022-07-29T11:13:47;97018.00;;;21.80
8227;BMP180;4154;48.810;9.012;2022-07-29T11:16:15;97018.00;;;21.60
8227;BMP180;4154;48.810;9.012;2022-07-29T11:21:37;97014.00;;;21.60
8227;BMP180;4154;48.810;9.012;2022-07-29T11:24:20;97015.00;;;21.60
8227;BMP180;4154;48.810;9.012;2022-07-29T11:27:14;97024.00;;;21.60
8227;BMP180;4154;48.810;9.012;2022-07-29T11:29:53;97023.00;;;21.70
8227;BMP180;4154;48.810;9.012;2022-07-29T11:32:20;97022.00;;;21.90
8227;BMP180;4154;48.810;9.012;2022-07-29T11:34:48;97022.00;;;22.10
8227;BMP180;4154;48.810;9.012;2022-07-29T11:37:16;97020.00;;;22.20
8227;BMP180;4154;48.810;9.012;2022-07-29T11:45:21;97015.00;;;22.30
8227;BMP180;4154;48.810;9.012;2022-07-29T11:47:55;97019.00;;;22.30
8227;BMP180;4154;48.810;9.012;2022-07-29T11:50:36;97012.00;;;22.30
8227;BMP180;4154;48.810;9.012;2022-07-29T11:53:11;97012.00;;;22.30
8227;BMP180;4154;48.810;9.012;2022-07-29T11:55:39;97015.00;;;22.40
8227;BMP180;4154;48.810;9.012;2022-07-29T11:58:05;97014.00;;;22.40
8227;BMP180;4154;48.810;9.012;2022-07-29T12:00:37;97020.00;;;22.40
8227;BMP180;4154;48.810;9.012;2022-07-29T12:03:07;97018.00;;;22.40
8227;BMP180;4154;48.810;9.012;2022-07-29T12:05:43;97022.00;;;22.40
8227;BMP180;4154;48.810;9.012;2022-07-29T12:08:12;97022.00;;;22.40
8227;BMP180;4154;48.810;9.012;2022-07-29T12:10:39;97017.00;;;22.40
8227;BMP180;4154;48.810;9.012;2022-07-29T12:13:06;97008.00;;;22.40
8227;BMP180;4154;48.810;9.012;2022-07-29T12:15:32;97012.00;;;22.40
8227;BMP180;4154;48.810;9.012;2022-07-29T12:17:59;97010.00;;;22.30
8227;BMP180;4154;48.810;9.012;2022-07-29T12:20:34;97018.00;;;22.30
8227;BMP180;4154;48.810;9.012;2022-07-29T12:23:06;97016.00;;;22.30
8227;BMP180;4154;48.810;9.012;2022-07-29T12:25:35;97014.00;;;22.30
8227;BMP180;4154;48.810;9.012;2022-07-29T12:28:08;97024.00;;;22.20
8227;BMP180;4154;48.810;9.012;2022-07-29T12:30:47;97022.00;;;22.20
8227;BMP180;4154;48.810;9.012;2022-07-29T12:33:24;97021.00;;;22.10
8227;BMP180;4154;48.810;9.012;2022-07-29T12:35:59;97021.00;;;22.10
8227;BMP180;4154;48.810;9.012;2022-07-29T12:38:26;97019.00;;;22.00
8227;BMP180;4154;48.810;9.012;2022-07-29T12:40:53;97014.00;;;21.90
8227;BMP180;4154;48.810;9.012;2022-07-29T12:43:22;97016.00;;;21.90
8227;BMP180;4154;48.810;9.012;2022-07-29T12:45:55;97015.00;;;21.90
8227;BMP180;4154;48.810;9.012;2022-07-29T12:48:40;97012.00;;;21.90
8227;BMP180;4154;48.810;9.012;2022-07-29T12:51:08;97015.00;;;21.90
8227;BMP180;4154;48.810;9.012;2022-07-29T12:53:37;97017.00;;;21.90
8227;BMP180;4154;48.810;9.012;2022-07-29T12:56:04;97016.00;;;21.90
8227;BMP180;4154;48.810;9.012;2022-07-29T12:58:32;97025.00;;;22.00
8227;BMP180;4154;48.810;9.012;2022-07-29T13:01:19;97011.00;;;22.00
8227;BMP180;4154;48.810;9.012;2022-07-29T13:03:59;97022.00;;;22.00
8227;BMP180;4154;48.810;9.012;2022-07-29T13:06:45;97024.00;;;22.00
8227;BMP180;4154;48.810;9.012;2022-07-29T13:09:43;97022.00;;;22.00
8227;BMP180;4154;48.810;9.012;2022-07-29T13:12:23;97026.00;;;22.10
8227;BMP180;4154;48.810;9.012;2022-07-29T13:14:50;97028.00;;;22.00
8227;BMP180;4154;48.810;9.012;2022-07-29T13:17:19;97027.00;;;22.00
8227;BMP180;4154;48.810;9.012;2022-07-29T13:20:07;97031.00;;;22.00
8227;BMP180;4154;48.810;9.012;2022-07-29T13:22:41;97035.00;;;22.00
8227;BMP180;4154;48.810;9.012;2022-07-29T13:25:11;97032.00;;;22.00
8227;BMP180;4154;48.810;9.012;2022-07-29T13:27:38;97039.00;;;22.00
8227;BMP180;4154;48.810;9.012;2022-07-29T13:30:08;97041.00;;;22.10
8227;BMP180;4154;48.810;9.012;2022-07-29T13:32:35;97028.00;;;22.10
8227;BMP180;4154;48.810;9.012;2022-07-29T13:35:07;97021.00;;;22.10
8227;BMP180;4154;48.810;9.012;2022-07-29T13:37:35;97018.00;;;22.20
8227;BMP180;4154;48.810;9.012;2022-07-29T13:40:05;97017.00;;;22.30
8227;BMP180;4154;48.810;9.012;2022-07-29T13:42:32;97016.00;;;22.40
8227;BMP180;4154;48.810;9.012;2022-07-29T13:44:59;97015.00;;;22.50
8227;BMP180;4154;48.810;9.012;2022-07-29T13:47:25;97011.00;;;22.70
8227;BMP180;4154;48.810;9.012;2022-07-29T13:49:51;97015.00;;;22.80
8227;BMP180;4154;48.810;9.012;2022-07-29T13:52:19;97016.00;;;22.80
8227;BMP180;4154;48.810;9.012;2022-07-29T13:54:46;97015.00;;;22.90
8227;BMP180;4154;48.810;9.012;2022-07-29T13:57:13;97005.00;;;22.90
8227;BMP180;4154;48.810;9.012;2022-07-29T13:59:42;96990.00;;;22.90
8227;BMP180;4154;48.810;9.012;2022-07-29T14:02:10;96992.00;;;22.90
8227;BMP180;4154;48.810;9.012;2022-07-29T14:04:38;96997.00;;;22.90
8227;BMP180;4154;48.810;9.012;2022-07-29T14:07:04;96999.00;;;22.90
8227;BMP180;4154;48.810;9.012;2022-07-29T14:09:30;96983.00;;;22.90
8227;BMP180;4154;48.810;9.012;2022-07-29T14:11:57;96978.00;;;23.00
8227;BMP180;4154;48.810;9.012;2022-07-29T14:14:23;96982.00;;;23.00
8227;BMP180;4154;48.810;9.012;2022-07-29T14:16:49;96982.00;;;23.00
8227;BMP180;4154;48.810;9.012;2022-07-29T14:19:15;96984.00;;;23.00
8227;BMP180;4154;48.810;9.012;2022-07-29T14:21:41;96989.00;;;23.10
8227;BMP180;4154;48.810;9.012;2022-07-29T14:24:08;96984.00;;;23.10
8227;BMP180;4154;48.810;9.012;2022-07-29T14:26:34;96984.00;;;23.10
8227;BMP180;4154;48.810;9.012;2022-07-29T14:29:00;96984.00;;;23.20
8227;BMP180;4154;48.810;9.012;2022-07-29T14:31:26;96988.00;;;23.20
8227;BMP180;4154;48.810;9.012;2022-07-29T14:33:52;96988.00;;;23.30
8227;BMP180;4154;48.810;9.012;2022-07-29T14:36:18;96998.00;;;23.30
8227;BMP180;4154;48.810;9.012;2022-07-29T14:38:45;96993.00;;;23.40
8227;BMP180;4154;48.810;9.012;2022-07-29T14:41:11;96991.00;;;23.40
8227;BMP180;4154;48.810;9.012;2022-07-29T14:43:37;96989.00;;;23.50
8227;BMP180;4154;48.810;9.012;2022-07-29T14:46:03;96988.00;;;23.50
8227;BMP180;4154;48.810;9.012;2022-07-29T14:48:29;97001.00;;;23.50
8227;BMP180;4154;48.810;9.012;2022-07-29T14:50:56;96990.00;;;23.60
8227;BMP180;4154;48.810;9.012;2022-07-29T14:53:22;96990.00;;;23.60
8227;BMP180;4154;48.810;9.012;2022-07-29T14:55:48;96997.00;;;23.60
8227;BMP180;4154;48.810;9.012;2022-07-29T14:58:15;96984.00;;;23.60
8227;BMP180;4154;48.810;9.012;2022-07-29T15:00:41;96989.00;;;23.60
8227;BMP180;4154;48.810;9.012;2022-07-29T15:03:07;96993.00;;;23.60
8227;BMP180;4154;48.810;9.012;2022-07-29T15:05:37;96990.00;;;23.60
8227;BMP180;4154;48.810;9.012;2022-07-29T15:08:03;97003.00;;;23.70
8227;BMP180;4154;48.810;9.012;2022-07-29T15:10:29;96992.00;;;23.70
8227;BMP180;4154;48.810;9.012;2022-07-29T15:12:56;96993.00;;;23.70
8227;BMP180;4154;48.810;9.012;2022-07-29T15:15:22;96993.00;;;23.70
8227;BMP180;4154;48.810;9.012;2022-07-29T15:17:48;97002.00;;;23.70